createdAt,value
2019-01-10T00:00:05.061Z,-2.91
2019-01-10T00:01:05.087Z,-2.91
2019-01-10T00:02:05.108Z,-2.99
2019-01-10T00:03:05.131Z,-2.99
2019-01-10T00:04:05.154Z,-2.99
2019-01-10T00:05:05.179Z,-3.02
2019-01-10T00:06:05.203Z,-3.01
2019-01-10T00:07:05.228Z,-2.96
2019-01-10T00:08:05.247Z,-2.96
2019-01-10T00:09:05.271Z,-2.86
2019-01-10T00:10:05.293Z,-2.98
2019-01-10T00:11:05.316Z,-2.89
2019-01-10T00:12:05.345Z,-3.02
2019-01-10T00:13:05.363Z,-2.90
2019-01-10T00:14:05.388Z,-2.91
2019-01-10T00:15:05.411Z,-2.87
2019-01-10T00:16:05.431Z,-2.90
2019-01-10T00:17:05.461Z,-2.90
2019-01-10T00:18:05.479Z,-2.98
2019-01-10T00:19:05.504Z,-2.91
2019-01-10T00:20:05.528Z,-2.96
2019-01-10T00:21:05.553Z,-2.98
2019-01-10T00:22:05.575Z,-2.94
2019-01-10T00:23:05.595Z,-2.90
2019-01-10T00:24:05.618Z,-2.98
2019-01-10T00:25:05.663Z,-3.01
2019-01-10T00:26:05.666Z,-2.98
2019-01-10T00:27:05.692Z,-2.98
2019-01-10T00:28:05.712Z,-2.98
2019-01-10T00:29:05.739Z,-2.96
2019-01-10T00:30:05.763Z,-2.90
2019-01-10T00:31:05.785Z,-2.83
2019-01-10T00:32:05.805Z,-2.90
2019-01-10T00:33:05.828Z,-2.84
2019-01-10T00:34:05.852Z,-2.89
2019-01-10T00:35:05.875Z,-2.89
2019-01-10T00:36:05.899Z,-2.90
2019-01-10T00:37:05.922Z,-2.89
2019-01-10T00:38:05.944Z,-2.94
2019-01-10T00:39:05.971Z,-2.86
2019-01-10T00:40:05.991Z,-3.01
2019-01-10T00:41:06.018Z,-2.91
2019-01-10T00:42:06.037Z,-2.87
2019-01-10T00:43:06.061Z,-2.96
2019-01-10T00:44:06.087Z,-2.86
2019-01-10T00:45:06.111Z,-2.91
2019-01-10T00:46:06.132Z,-2.84
2019-01-10T00:47:06.159Z,-2.93
2019-01-10T00:48:06.181Z,-2.94
2019-01-10T00:49:06.201Z,-2.96
2019-01-10T00:50:06.224Z,-2.90
2019-01-10T00:51:06.248Z,-2.86
2019-01-10T00:52:06.270Z,-2.86
2019-01-10T00:53:06.297Z,-2.89
2019-01-10T00:54:06.317Z,-2.89
2019-01-10T00:55:06.344Z,-2.87
2019-01-10T00:56:06.364Z,-2.86
2019-01-10T00:57:06.387Z,-2.89
2019-01-10T00:58:06.409Z,-2.78
2019-01-10T00:59:06.435Z,-2.84
2019-01-10T01:00:06.459Z,-2.83
2019-01-10T01:01:06.486Z,-2.80
2019-01-10T01:02:06.507Z,-2.87
2019-01-10T01:03:06.526Z,-2.84
2019-01-10T01:04:06.552Z,-2.94
2019-01-10T01:05:06.575Z,-2.89
2019-01-10T01:06:06.597Z,-2.80
2019-01-10T01:07:06.621Z,-2.80
2019-01-10T01:08:06.645Z,-2.81
2019-01-10T01:09:06.668Z,-2.90
2019-01-10T01:10:06.690Z,-2.89
2019-01-10T01:11:06.715Z,-2.84
2019-01-10T01:12:06.737Z,-2.89
2019-01-10T01:13:06.761Z,-2.89
2019-01-10T01:14:06.784Z,-2.89
2019-01-10T01:15:06.807Z,-2.81
2019-01-10T01:16:06.829Z,-2.87
2019-01-10T01:17:06.853Z,-2.86
2019-01-10T01:18:06.877Z,-2.84
2019-01-10T01:19:06.899Z,-2.84
2019-01-10T01:20:06.925Z,-2.90
2019-01-10T01:21:06.946Z,-2.83
2019-01-10T01:22:06.969Z,-2.89
2019-01-10T01:23:07.073Z,-2.86
2019-01-10T01:24:07.017Z,-2.81
2019-01-10T01:25:07.041Z,-2.84
2019-01-10T01:26:07.061Z,-2.76
2019-01-10T01:27:07.086Z,-2.81
2019-01-10T01:28:07.109Z,-2.81
2019-01-10T01:29:07.133Z,-2.80
2019-01-10T01:30:07.155Z,-2.84
2019-01-10T01:31:07.182Z,-2.84
2019-01-10T01:32:07.201Z,-2.83
2019-01-10T01:33:07.229Z,-2.83
2019-01-10T01:34:07.251Z,-2.76
2019-01-10T01:35:07.274Z,-2.84
2019-01-10T01:36:07.296Z,-2.84
2019-01-10T01:37:07.323Z,-2.80
2019-01-10T01:38:07.343Z,-2.76
2019-01-10T01:39:07.366Z,-2.84
2019-01-10T01:40:07.390Z,-2.76
2019-01-10T01:41:07.414Z,-2.75
2019-01-10T01:42:07.436Z,-2.76
2019-01-10T01:43:07.865Z,-2.80
2019-01-10T01:44:07.483Z,-2.73
2019-01-10T01:45:07.509Z,-2.73
2019-01-10T01:46:07.837Z,-2.86
2019-01-10T01:47:07.553Z,-2.72
2019-01-10T01:48:07.576Z,-2.80
2019-01-10T01:49:07.600Z,-2.72
2019-01-10T01:50:07.622Z,-2.72
2019-01-10T01:51:07.647Z,-2.75
2019-01-10T01:52:07.672Z,-2.75
2019-01-10T01:53:07.701Z,-2.81
2019-01-10T01:54:07.717Z,-2.76
2019-01-10T01:55:07.743Z,-2.73
2019-01-10T01:56:07.764Z,-2.75
2019-01-10T01:57:07.786Z,-2.76
2019-01-10T01:58:07.813Z,-2.76
2019-01-10T01:59:07.836Z,-2.78
2019-01-10T02:00:07.858Z,-2.68
2019-01-10T02:01:07.881Z,-2.76
2019-01-10T02:02:07.903Z,-2.80
2019-01-10T02:03:07.931Z,-2.76
2019-01-10T02:04:07.956Z,-2.76
2019-01-10T02:05:07.976Z,-2.73
2019-01-10T02:06:07.998Z,-2.73
2019-01-10T02:07:08.021Z,-2.76
2019-01-10T02:08:08.045Z,-2.76
2019-01-10T02:09:08.072Z,-2.76
2019-01-10T02:10:08.090Z,-2.80
2019-01-10T02:11:08.114Z,-2.83
2019-01-10T02:12:08.137Z,-2.80
2019-01-10T02:13:16.277Z,-2.76
2019-01-10T02:14:08.188Z,-2.80
2019-01-10T02:15:08.208Z,-2.83
2019-01-10T02:16:08.234Z,-2.76
2019-01-10T02:17:08.254Z,-2.87
2019-01-10T02:18:08.275Z,-2.75
2019-01-10T02:19:08.304Z,-2.80
2019-01-10T02:20:08.322Z,-2.73
2019-01-10T02:21:08.348Z,-2.76
2019-01-10T02:22:08.370Z,-2.78
2019-01-10T02:23:08.392Z,-2.76
2019-01-10T02:24:08.422Z,-2.75
2019-01-10T02:25:08.438Z,-2.78
2019-01-10T02:26:08.462Z,-2.76
2019-01-10T02:27:08.488Z,-2.76
2019-01-10T02:28:08.509Z,-2.73
2019-01-10T02:29:08.534Z,-2.76
2019-01-10T02:30:08.556Z,-2.76
2019-01-10T02:31:08.579Z,-2.81
2019-01-10T02:32:08.604Z,-2.75
2019-01-10T02:33:08.632Z,-2.80
2019-01-10T02:34:08.652Z,-2.78
2019-01-10T02:35:08.674Z,-2.73
2019-01-10T02:36:08.699Z,-2.76
2019-01-10T02:37:08.890Z,-2.76
2019-01-10T02:38:08.745Z,-2.80
2019-01-10T02:39:08.767Z,-2.76
2019-01-10T02:40:08.791Z,-2.87
2019-01-10T02:41:08.814Z,-2.80
2019-01-10T02:42:08.838Z,-2.83
2019-01-10T02:43:08.861Z,-2.83
2019-01-10T02:44:08.883Z,-2.83
2019-01-10T02:45:08.909Z,-2.81
2019-01-10T02:46:08.932Z,-2.81
2019-01-10T02:47:08.953Z,-2.81
2019-01-10T02:48:08.976Z,-2.81
2019-01-10T02:49:09.000Z,-2.81
2019-01-10T02:50:09.024Z,-2.78
2019-01-10T02:51:09.049Z,-2.78
2019-01-10T02:52:09.074Z,-2.81
2019-01-10T02:53:09.096Z,-2.89
2019-01-10T02:54:09.114Z,-2.87
2019-01-10T02:55:09.142Z,-2.87
2019-01-10T02:56:09.166Z,-2.84
2019-01-10T02:57:09.195Z,-2.86
2019-01-10T02:58:09.211Z,-2.81
2019-01-10T02:59:09.233Z,-2.83
2019-01-10T03:00:09.255Z,-2.81
2019-01-10T03:01:09.281Z,-2.89
2019-01-10T03:02:09.303Z,-2.89
2019-01-10T03:03:09.332Z,-2.87
2019-01-10T03:04:09.351Z,-2.84
2019-01-10T03:05:09.374Z,-2.83
2019-01-10T03:06:09.394Z,-2.81
2019-01-10T03:07:09.418Z,-2.89
2019-01-10T03:08:09.444Z,-2.96
2019-01-10T03:09:09.470Z,-2.87
2019-01-10T03:10:09.493Z,-2.94
2019-01-10T03:11:09.516Z,-2.99
2019-01-10T03:12:09.537Z,-2.99
2019-01-10T03:13:09.559Z,-2.98
2019-01-10T03:14:09.585Z,-2.99
2019-01-10T03:15:09.606Z,-2.98
2019-01-10T03:16:09.629Z,-2.90
2019-01-10T03:17:09.658Z,-2.94
2019-01-10T03:18:09.676Z,-3.01
2019-01-10T03:19:09.699Z,-3.05
2019-01-10T03:20:09.727Z,-3.04
2019-01-10T03:21:09.747Z,-3.09
2019-01-10T03:22:09.770Z,-3.12
2019-01-10T03:23:09.793Z,-3.15
2019-01-10T03:24:09.817Z,-3.12
2019-01-10T03:25:09.845Z,-3.19
2019-01-10T03:26:09.860Z,-3.12
2019-01-10T03:27:09.894Z,-3.14
2019-01-10T03:28:09.910Z,-3.11
2019-01-10T03:29:11.577Z,-3.09
2019-01-10T03:30:09.957Z,-3.04
2019-01-10T03:31:09.983Z,-3.12
2019-01-10T03:32:10.005Z,-3.02
2019-01-10T03:33:10.030Z,-3.04
2019-01-10T03:34:10.050Z,-3.08
2019-01-10T03:35:10.074Z,-3.08
2019-01-10T03:36:10.098Z,-3.07
2019-01-10T03:37:10.120Z,-3.04
2019-01-10T03:38:10.144Z,-3.08
2019-01-10T03:39:10.165Z,-3.05
2019-01-10T03:40:10.190Z,-3.12
2019-01-10T03:41:10.213Z,-2.99
2019-01-10T03:42:10.238Z,-3.04
2019-01-10T03:43:10.261Z,-3.02
2019-01-10T03:44:10.286Z,-2.93
2019-01-10T03:45:10.308Z,-3.02
2019-01-10T03:46:10.327Z,-2.94
2019-01-10T03:47:10.356Z,-3.05
2019-01-10T03:48:10.380Z,-3.02
2019-01-10T03:49:10.402Z,-3.02
2019-01-10T03:50:10.425Z,-3.01
2019-01-10T03:51:10.450Z,-2.96
2019-01-10T03:52:10.470Z,-3.01
2019-01-10T03:53:10.491Z,-3.01
2019-01-10T03:54:10.515Z,-2.96
2019-01-10T03:55:10.538Z,-3.02
2019-01-10T03:56:10.563Z,-2.93
2019-01-10T03:57:10.585Z,-3.02
2019-01-10T03:58:10.611Z,-3.01
2019-01-10T03:59:10.633Z,-3.01
2019-01-10T04:00:10.659Z,-2.99
2019-01-10T04:01:10.685Z,-3.01
2019-01-10T04:02:10.703Z,-3.02
2019-01-10T04:03:10.727Z,-2.99
2019-01-10T04:04:10.748Z,-2.93
2019-01-10T04:05:10.774Z,-3.01
2019-01-10T04:06:10.808Z,-2.96
2019-01-10T04:07:10.819Z,-3.02
2019-01-10T04:08:10.845Z,-2.99
2019-01-10T04:09:10.867Z,-3.04
2019-01-10T04:10:11.058Z,-3.01
2019-01-10T04:11:10.916Z,-3.02
2019-01-10T04:12:10.939Z,-3.01
2019-01-10T04:13:10.959Z,-3.01
2019-01-10T04:14:10.985Z,-3.05
2019-01-10T04:15:11.011Z,-3.04
2019-01-10T04:16:11.032Z,-3.09
2019-01-10T04:17:11.050Z,-3.02
2019-01-10T04:18:11.073Z,-3.12
2019-01-10T04:19:11.202Z,-3.11
2019-01-10T04:20:11.126Z,-3.14
2019-01-10T04:21:16.921Z,-3.12
2019-01-10T04:22:11.166Z,-3.09
2019-01-10T04:23:11.190Z,-3.09
2019-01-10T04:24:11.213Z,-3.09
2019-01-10T04:25:11.236Z,-3.09
2019-01-10T04:26:11.264Z,-3.15
2019-01-10T04:27:11.282Z,-3.14
2019-01-10T04:28:11.308Z,-3.12
2019-01-10T04:29:11.331Z,-3.08
2019-01-10T04:30:11.353Z,-3.11
2019-01-10T04:31:11.377Z,-3.17
2019-01-10T04:32:11.401Z,-3.15
2019-01-10T04:33:11.424Z,-3.14
2019-01-10T04:34:11.447Z,-3.08
2019-01-10T04:35:11.471Z,-3.09
2019-01-10T04:36:11.496Z,-3.09
2019-01-10T04:37:11.525Z,-3.09
2019-01-10T04:38:11.543Z,-3.07
2019-01-10T04:39:11.565Z,-3.09
2019-01-10T04:40:11.593Z,-3.09
2019-01-10T04:41:11.611Z,-3.09
2019-01-10T04:42:11.632Z,-3.09
2019-01-10T04:43:11.658Z,-3.08
2019-01-10T04:44:11.679Z,-3.09
2019-01-10T04:45:11.702Z,-3.07
2019-01-10T04:46:11.730Z,-3.11
2019-01-10T04:47:11.749Z,-3.04
2019-01-10T04:48:11.772Z,-3.12
2019-01-10T04:49:11.796Z,-3.12
2019-01-10T04:50:11.824Z,-3.14
2019-01-10T04:51:11.845Z,-3.04
2019-01-10T04:52:11.867Z,-3.04
2019-01-10T04:53:11.890Z,-3.07
2019-01-10T04:54:11.913Z,-3.04
2019-01-10T04:55:11.940Z,-3.02
2019-01-10T04:56:11.958Z,-3.05
2019-01-10T04:57:11.983Z,-3.07
2019-01-10T04:58:12.005Z,-3.02
2019-01-10T04:59:12.284Z,-3.02
2019-01-10T05:00:12.056Z,-3.05
2019-01-10T05:01:12.080Z,-3.02
2019-01-10T05:02:18.264Z,-3.07
2019-01-10T05:03:12.125Z,-3.02
2019-01-10T05:04:12.145Z,-3.04
2019-01-10T05:05:12.180Z,-3.02
2019-01-10T05:06:12.190Z,-3.02
2019-01-10T05:07:12.214Z,-3.05
2019-01-10T05:08:12.239Z,-3.02
2019-01-10T05:09:12.264Z,-2.99
2019-01-10T05:10:12.287Z,-2.98
2019-01-10T05:11:12.311Z,-3.01
2019-01-10T05:12:12.333Z,-2.96
2019-01-10T05:13:12.360Z,-2.96
2019-01-10T05:14:16.643Z,-2.96
2019-01-10T05:15:12.409Z,-2.94
2019-01-10T05:16:12.425Z,-2.99
2019-01-10T05:17:12.451Z,-3.02
2019-01-10T05:18:12.471Z,-3.04
2019-01-10T05:19:12.499Z,-2.99
2019-01-10T05:20:12.519Z,-3.07
2019-01-10T05:21:12.541Z,-2.93
2019-01-10T05:22:12.565Z,-3.01
2019-01-10T05:23:12.590Z,-2.99
2019-01-10T05:24:12.614Z,-2.98
2019-01-10T05:25:12.638Z,-2.99
2019-01-10T05:26:12.658Z,-2.98
2019-01-10T05:27:12.685Z,-2.98
2019-01-10T05:28:12.705Z,-3.01
2019-01-10T05:29:12.730Z,-2.96
2019-01-10T05:30:12.754Z,-3.01
2019-01-10T05:31:12.775Z,-2.96
2019-01-10T05:32:12.802Z,-3.02
2019-01-10T05:33:12.822Z,-3.01
2019-01-10T05:34:12.846Z,-3.02
2019-01-10T05:35:12.869Z,-2.98
2019-01-10T05:36:12.893Z,-2.98
2019-01-10T05:37:12.935Z,-3.04
2019-01-10T05:38:12.941Z,-2.96
2019-01-10T05:39:12.961Z,-3.04
2019-01-10T05:40:12.989Z,-2.98
2019-01-10T05:41:13.019Z,-3.04
2019-01-10T05:42:13.609Z,-2.98
2019-01-10T05:43:13.064Z,-2.98
2019-01-10T05:44:13.079Z,-3.01
2019-01-10T05:45:13.103Z,-2.90
2019-01-10T05:46:13.125Z,-3.02
2019-01-10T05:47:13.148Z,-2.87
2019-01-10T05:48:13.171Z,-2.93
2019-01-10T05:49:13.198Z,-3.01
2019-01-10T05:50:13.218Z,-2.89
2019-01-10T05:51:13.243Z,-2.93
2019-01-10T05:52:13.266Z,-2.93
2019-01-10T05:53:13.287Z,-3.01
2019-01-10T05:54:13.312Z,-2.84
2019-01-10T05:55:13.336Z,-2.90
2019-01-10T05:56:15.638Z,-2.87
2019-01-10T05:57:13.384Z,-2.89
2019-01-10T05:58:13.406Z,-2.91
2019-01-10T05:59:13.431Z,-2.91
2019-01-10T06:00:13.450Z,-2.94
2019-01-10T06:01:13.474Z,-2.89
2019-01-10T06:02:13.496Z,-2.99
2019-01-10T06:03:13.524Z,-2.90
2019-01-10T06:04:13.547Z,-2.98
2019-01-10T06:05:13.568Z,-2.98
2019-01-10T06:06:13.591Z,-3.01
2019-01-10T06:07:13.617Z,-2.89
2019-01-10T06:08:13.640Z,-2.94
2019-01-10T06:09:13.663Z,-3.01
2019-01-10T06:10:13.681Z,-2.91
2019-01-10T06:11:13.706Z,-2.99
2019-01-10T06:12:13.733Z,-2.98
2019-01-10T06:13:13.755Z,-2.98
2019-01-10T06:14:13.778Z,-2.89
2019-01-10T06:15:13.803Z,-2.89
2019-01-10T06:16:13.822Z,-2.98
2019-01-10T06:17:13.850Z,-2.98
2019-01-10T06:18:13.868Z,-2.96
2019-01-10T06:19:13.893Z,-2.89
2019-01-10T06:20:13.918Z,-2.83
2019-01-10T06:21:13.941Z,-2.90
2019-01-10T06:22:13.962Z,-2.99
2019-01-10T06:23:13.986Z,-2.89
2019-01-10T06:24:14.009Z,-2.89
2019-01-10T06:25:14.032Z,-2.84
2019-01-10T06:26:14.054Z,-2.87
2019-01-10T06:27:14.080Z,-2.83
2019-01-10T06:28:14.102Z,-2.86
2019-01-10T06:29:14.124Z,-2.84
2019-01-10T06:30:14.150Z,-2.89
2019-01-10T06:31:14.171Z,-2.84
2019-01-10T06:32:14.194Z,-2.90
2019-01-10T06:33:14.216Z,-2.80
2019-01-10T06:34:14.243Z,-2.96
2019-01-10T06:35:14.268Z,-2.80
2019-01-10T06:36:14.286Z,-2.93
2019-01-10T06:37:14.310Z,-2.89
2019-01-10T06:38:14.331Z,-2.80
2019-01-10T06:39:14.359Z,-2.89
2019-01-10T06:40:14.379Z,-2.81
2019-01-10T06:41:14.401Z,-2.86
2019-01-10T06:42:14.425Z,-2.87
2019-01-10T06:43:14.448Z,-2.87
2019-01-10T06:44:14.474Z,-2.90
2019-01-10T06:45:14.495Z,-2.89
2019-01-10T06:46:14.517Z,-2.83
2019-01-10T06:47:14.539Z,-2.87
2019-01-10T06:48:14.563Z,-2.86
2019-01-10T06:49:14.587Z,-2.86
2019-01-10T06:50:14.609Z,-2.91
2019-01-10T06:51:14.633Z,-2.86
2019-01-10T06:52:14.657Z,-2.84
2019-01-10T06:53:14.679Z,-2.90
2019-01-10T06:54:14.710Z,-2.87
2019-01-10T06:55:14.724Z,-2.90
2019-01-10T06:56:14.750Z,-2.96
2019-01-10T06:57:14.774Z,-2.93
2019-01-10T06:58:14.794Z,-2.87
2019-01-10T06:59:14.818Z,-2.90
2019-01-10T07:00:14.840Z,-2.99
2019-01-10T07:01:14.866Z,-2.94
2019-01-10T07:02:14.891Z,-2.94
2019-01-10T07:03:14.910Z,-2.90
2019-01-10T07:04:14.932Z,-2.96
2019-01-10T07:05:14.959Z,-2.90
2019-01-10T07:06:14.978Z,-3.01
2019-01-10T07:07:15.005Z,-2.99
2019-01-10T07:08:15.026Z,-2.91
2019-01-10T07:09:15.049Z,-2.91
2019-01-10T07:10:15.074Z,-2.98
2019-01-10T07:11:15.094Z,-2.99
2019-01-10T07:12:15.118Z,-2.90
2019-01-10T07:13:15.142Z,-2.96
2019-01-10T07:14:15.162Z,-2.98
2019-01-10T07:15:15.188Z,-2.89
2019-01-10T07:16:15.209Z,-2.94
2019-01-10T07:17:16.034Z,-2.96
2019-01-10T07:18:15.255Z,-2.86
2019-01-10T07:19:15.279Z,-2.93
2019-01-10T07:20:15.305Z,-2.86
2019-01-10T07:21:15.326Z,-2.89
2019-01-10T07:22:15.348Z,-2.94
2019-01-10T07:23:15.371Z,-2.89
2019-01-10T07:24:15.398Z,-2.93
2019-01-10T07:25:15.417Z,-2.90
2019-01-10T07:26:15.449Z,-2.94
2019-01-10T07:27:15.466Z,-2.94
2019-01-10T07:28:15.488Z,-2.87
2019-01-10T07:29:15.513Z,-2.96
2019-01-10T07:30:15.534Z,-2.89
2019-01-10T07:31:15.556Z,-2.89
2019-01-10T07:32:15.579Z,-2.89
2019-01-10T07:33:15.601Z,-2.96
2019-01-10T07:34:15.625Z,-2.86
2019-01-10T07:35:15.652Z,-2.90
2019-01-10T07:36:15.672Z,-2.93
2019-01-10T07:37:15.695Z,-2.98
2019-01-10T07:38:15.716Z,-2.89
2019-01-10T07:39:15.742Z,-2.83
2019-01-10T07:40:15.765Z,-2.86
2019-01-10T07:41:15.788Z,-2.89
2019-01-10T07:42:15.814Z,-2.89
2019-01-10T07:43:15.835Z,-2.90
2019-01-10T07:44:15.859Z,-2.83
2019-01-10T07:45:15.881Z,-2.89
2019-01-10T07:46:15.903Z,-2.84
2019-01-10T07:47:15.926Z,-2.89
2019-01-10T07:48:15.947Z,-2.86
2019-01-10T07:49:15.971Z,-2.83
2019-01-10T07:50:16.001Z,-2.86
2019-01-10T07:51:16.022Z,-2.90
2019-01-10T07:52:16.040Z,-2.89
2019-01-10T07:53:16.064Z,-2.86
2019-01-10T07:54:16.089Z,-2.81
2019-01-10T07:55:16.112Z,-2.84
2019-01-10T07:56:16.138Z,-2.81
2019-01-10T07:57:16.157Z,-2.76
2019-01-10T07:58:16.177Z,-2.81
2019-01-10T07:59:16.205Z,-2.87
2019-01-10T08:00:16.224Z,-2.81
2019-01-10T08:01:16.249Z,-2.78
2019-01-10T08:02:16.270Z,-2.76
2019-01-10T08:03:16.295Z,-2.76
2019-01-10T08:04:16.321Z,-2.81
2019-01-10T08:05:16.342Z,-2.75
2019-01-10T08:06:16.363Z,-2.73
2019-01-10T08:07:16.387Z,-2.76
2019-01-10T08:08:16.411Z,-2.78
2019-01-10T08:09:16.435Z,-2.76
2019-01-10T08:10:16.458Z,-2.73
2019-01-10T08:11:16.478Z,-2.78
2019-01-10T08:12:16.505Z,-2.83
2019-01-10T08:13:16.525Z,-2.78
2019-01-10T08:14:16.550Z,-2.76
2019-01-10T08:15:16.574Z,-2.80
2019-01-10T08:16:16.597Z,-2.75
2019-01-10T08:17:16.624Z,-2.80
2019-01-10T08:18:16.642Z,-2.75
2019-01-10T08:19:16.664Z,-2.73
2019-01-10T08:20:16.778Z,-2.70
2019-01-10T08:21:16.713Z,-2.73
2019-01-10T08:22:16.743Z,-2.65
2019-01-10T08:23:16.757Z,-2.72
2019-01-10T08:24:16.785Z,-2.66
2019-01-10T08:25:16.803Z,-2.69
2019-01-10T08:26:16.829Z,-2.70
2019-01-10T08:27:16.856Z,-2.66
2019-01-10T08:28:16.872Z,-2.69
2019-01-10T08:29:16.900Z,-2.69
2019-01-10T08:30:16.920Z,-2.65
2019-01-10T08:31:16.941Z,-2.69
2019-01-10T08:32:16.969Z,-2.68
2019-01-10T08:33:16.988Z,-2.61
2019-01-10T08:34:17.015Z,-2.63
2019-01-10T08:35:17.035Z,-2.58
2019-01-10T08:36:17.057Z,-2.62
2019-01-10T08:37:17.082Z,-2.48
2019-01-10T08:38:17.103Z,-2.63
2019-01-10T08:39:17.129Z,-2.48
2019-01-10T08:40:17.151Z,-2.52
2019-01-10T08:41:17.175Z,-2.58
2019-01-10T08:42:17.196Z,-2.58
2019-01-10T08:43:17.221Z,-2.58
2019-01-10T08:44:17.246Z,-2.47
2019-01-10T08:45:21.954Z,-2.48
2019-01-10T08:46:18.901Z,-2.51
2019-01-10T08:47:17.316Z,-2.48
2019-01-10T08:48:17.335Z,-2.50
2019-01-10T08:49:17.362Z,-2.50
2019-01-10T08:50:17.384Z,-2.47
2019-01-10T08:51:17.405Z,-2.33
2019-01-10T08:52:17.432Z,-2.48
2019-01-10T08:53:17.452Z,-2.36
2019-01-10T08:54:17.475Z,-2.42
2019-01-10T08:55:17.509Z,-2.42
2019-01-10T08:56:17.525Z,-2.40
2019-01-10T08:57:17.547Z,-2.39
2019-01-10T08:58:17.565Z,-2.40
2019-01-10T08:59:17.591Z,-2.45
2019-01-10T09:00:17.620Z,-2.48
2019-01-10T09:01:17.640Z,-2.42
2019-01-10T09:02:17.662Z,-2.36
2019-01-10T09:03:17.681Z,-2.40
2019-01-10T09:04:17.709Z,-2.39
2019-01-10T09:05:17.728Z,-2.32
2019-01-10T09:06:17.755Z,-2.29
2019-01-10T09:07:17.774Z,-2.23
2019-01-10T09:08:17.800Z,-2.36
2019-01-10T09:09:17.823Z,-2.23
2019-01-10T09:10:17.848Z,-2.28
2019-01-10T09:11:17.869Z,-2.20
2019-01-10T09:12:17.892Z,-2.25
2019-01-10T09:13:17.917Z,-2.15
2019-01-10T09:14:17.937Z,-2.25
2019-01-10T09:15:23.388Z,-2.20
2019-01-10T09:16:17.983Z,-2.15
2019-01-10T09:17:18.008Z,-2.22
2019-01-10T09:18:18.036Z,-2.23
2019-01-10T09:19:18.053Z,-2.14
2019-01-10T09:20:18.081Z,-2.15
2019-01-10T09:21:18.102Z,-2.23
2019-01-10T09:22:18.123Z,-2.14
2019-01-10T09:23:18.147Z,-2.20
2019-01-10T09:24:18.170Z,-2.15
2019-01-10T09:25:18.196Z,-2.25
2019-01-10T09:26:18.214Z,-2.15
2019-01-10T09:27:18.239Z,-2.20
2019-01-10T09:28:18.262Z,-2.10
2019-01-10T09:29:18.288Z,-2.22
2019-01-10T09:30:18.309Z,-2.13
2019-01-10T09:31:18.331Z,-2.11
2019-01-10T09:32:18.356Z,-2.14
2019-01-10T09:33:18.379Z,-2.08
2019-01-10T09:34:24.676Z,-2.07
2019-01-10T09:35:18.425Z,-2.04
2019-01-10T09:36:18.449Z,-2.10
2019-01-10T09:37:18.475Z,-2.08
2019-01-10T09:38:18.494Z,-2.07
2019-01-10T09:39:18.517Z,-2.04
2019-01-10T09:40:18.542Z,-2.04
2019-01-10T09:41:18.568Z,-2.04
2019-01-10T09:42:18.589Z,-2.02
2019-01-10T09:43:18.612Z,-2.11
2019-01-10T09:44:18.635Z,-1.97
2019-01-10T09:45:18.656Z,-1.99
2019-01-10T09:46:18.680Z,-1.94
2019-01-10T09:47:18.703Z,-1.96
2019-01-10T09:48:18.728Z,-1.96
2019-01-10T09:49:18.750Z,-1.99
2019-01-10T09:50:18.771Z,-1.93
2019-01-10T09:51:18.794Z,-1.92
2019-01-10T09:52:18.818Z,-1.93
2019-01-10T09:53:18.842Z,-1.81
2019-01-10T09:54:18.866Z,-1.89
2019-01-10T09:55:18.891Z,-1.84
2019-01-10T09:56:18.911Z,-1.84
2019-01-10T09:57:18.934Z,-1.92
2019-01-10T09:58:18.959Z,-1.93
2019-01-10T09:59:18.981Z,-1.92
2019-01-10T10:00:19.004Z,-1.84
2019-01-10T10:01:19.027Z,-1.82
2019-01-10T10:02:19.051Z,-1.94
2019-01-10T10:03:19.075Z,-1.89
2019-01-10T10:04:19.099Z,-1.90
2019-01-10T10:05:19.120Z,-1.89
2019-01-10T10:06:19.144Z,-1.94
2019-01-10T10:07:19.166Z,-1.87
2019-01-10T10:08:19.190Z,-1.82
2019-01-10T10:09:19.214Z,-1.90
2019-01-10T10:10:19.286Z,-1.87
2019-01-10T10:11:19.261Z,-1.90
2019-01-10T10:12:19.286Z,-1.89
2019-01-10T10:13:19.308Z,-1.89
2019-01-10T10:14:19.330Z,-1.82
2019-01-10T10:15:19.355Z,-1.86
2019-01-10T10:16:19.378Z,-1.92
2019-01-10T10:17:19.399Z,-1.96
2019-01-10T10:18:19.423Z,-1.94
2019-01-10T10:19:19.446Z,-1.90
2019-01-10T10:20:19.517Z,-1.94
2019-01-10T10:21:19.493Z,-1.90
2019-01-10T10:22:19.519Z,-1.94
2019-01-10T10:23:26.789Z,-1.96
2019-01-10T10:24:19.564Z,-1.90
2019-01-10T10:25:19.588Z,-1.99
2019-01-10T10:26:19.609Z,-1.93
2019-01-10T10:27:19.633Z,-1.90
2019-01-10T10:28:19.656Z,-1.92
2019-01-10T10:29:19.680Z,-1.94
2019-01-10T10:30:19.701Z,-1.96
2019-01-10T10:31:19.726Z,-1.92
2019-01-10T10:32:19.751Z,-1.97
2019-01-10T10:33:19.773Z,-1.90
2019-01-10T10:34:19.796Z,-1.94
2019-01-10T10:35:19.819Z,-1.93
2019-01-10T10:36:19.844Z,-1.92
2019-01-10T10:37:19.867Z,-1.89
2019-01-10T10:38:19.890Z,-1.99
2019-01-10T10:39:19.916Z,-1.92
2019-01-10T10:40:19.935Z,-1.97
2019-01-10T10:41:19.960Z,-1.89
2019-01-10T10:42:19.983Z,-1.96
2019-01-10T10:43:20.004Z,-1.96
2019-01-10T10:44:20.028Z,-1.96
2019-01-10T10:45:20.150Z,-1.96
2019-01-10T10:46:20.077Z,-1.96
2019-01-10T10:47:20.097Z,-1.96
2019-01-10T10:48:20.120Z,-1.93
2019-01-10T10:49:20.143Z,-1.93
2019-01-10T10:50:20.166Z,-1.96
2019-01-10T10:51:20.192Z,-1.99
2019-01-10T10:52:20.211Z,-1.96
2019-01-10T10:53:20.238Z,-1.96
2019-01-10T10:54:20.259Z,-1.92
2019-01-10T10:55:20.284Z,-1.93
2019-01-10T10:56:20.307Z,-1.87
2019-01-10T10:57:21.844Z,-1.94
2019-01-10T10:58:20.352Z,-1.96
2019-01-10T10:59:20.375Z,-1.89
2019-01-10T11:00:20.400Z,-1.93
2019-01-10T11:01:20.422Z,-1.92
2019-01-10T11:02:20.444Z,-1.97
2019-01-10T11:03:20.468Z,-1.96
2019-01-10T11:04:20.494Z,-1.87
2019-01-10T11:05:20.514Z,-1.96
2019-01-10T11:06:20.537Z,-1.93
2019-01-10T11:07:20.569Z,-1.92
2019-01-10T11:08:20.585Z,-1.82
2019-01-10T11:09:20.610Z,-1.87
2019-01-10T11:10:20.632Z,-1.93
2019-01-10T11:11:20.655Z,-1.86
2019-01-10T11:12:20.678Z,-1.89
2019-01-10T11:13:20.702Z,-1.93
2019-01-10T11:14:20.724Z,-1.92
2019-01-10T11:15:20.755Z,-1.92
2019-01-10T11:16:20.769Z,-1.90
2019-01-10T11:17:20.809Z,-1.92
2019-01-10T11:18:20.820Z,-1.87
2019-01-10T11:19:20.843Z,-1.87
2019-01-10T11:20:20.865Z,-1.89
2019-01-10T11:21:20.887Z,-1.97
2019-01-10T11:22:20.913Z,-1.81
2019-01-10T11:23:20.933Z,-1.90
2019-01-10T11:24:20.957Z,-1.86
2019-01-10T11:25:20.980Z,-1.92
2019-01-10T11:26:21.003Z,-1.94
2019-01-10T11:27:21.029Z,-1.86
2019-01-10T11:28:21.051Z,-1.92
2019-01-10T11:29:21.073Z,-1.84
2019-01-10T11:30:21.097Z,-1.93
2019-01-10T11:31:21.119Z,-1.96
2019-01-10T11:32:21.143Z,-1.86
2019-01-10T11:33:21.167Z,-1.90
2019-01-10T11:34:21.239Z,-1.86
2019-01-10T11:35:21.212Z,-1.87
2019-01-10T11:36:21.237Z,-1.84
2019-01-10T11:37:21.262Z,-1.97
2019-01-10T11:38:21.281Z,-1.94
2019-01-10T11:39:21.309Z,-1.93
2019-01-10T11:40:21.331Z,-1.92
2019-01-10T11:41:21.352Z,-1.87
2019-01-10T11:42:21.379Z,-1.82
2019-01-10T11:43:21.399Z,-1.84
2019-01-10T11:44:21.421Z,-1.86
2019-01-10T11:45:21.448Z,-1.93
2019-01-10T11:46:21.467Z,-1.92
2019-01-10T11:47:21.491Z,-1.94
2019-01-10T11:48:21.514Z,-1.87
2019-01-10T11:49:21.539Z,-1.92
2019-01-10T11:50:21.561Z,-1.82
2019-01-10T11:51:21.585Z,-1.87
2019-01-10T11:52:21.608Z,-1.90
2019-01-10T11:53:21.634Z,-1.89
2019-01-10T11:54:21.652Z,-1.87
2019-01-10T11:55:21.681Z,-1.86
2019-01-10T11:56:21.704Z,-1.96
2019-01-10T11:57:21.729Z,-1.92
2019-01-10T11:58:21.749Z,-1.94
2019-01-10T11:59:21.773Z,-1.96
2019-01-10T12:00:21.794Z,-1.81
2019-01-10T12:01:21.823Z,-1.93
2019-01-10T12:02:21.840Z,-1.99
2019-01-10T12:03:21.869Z,-1.96
2019-01-10T12:04:21.891Z,-1.90
2019-01-10T12:05:21.911Z,-1.94
2019-01-10T12:06:21.934Z,-1.94
2019-01-10T12:07:21.958Z,-1.89
2019-01-10T12:08:21.986Z,-1.96
2019-01-10T12:09:22.007Z,-2.00
2019-01-10T12:10:22.028Z,-1.97
2019-01-10T12:11:22.051Z,-1.94
2019-01-10T12:12:22.074Z,-1.92
2019-01-10T12:13:22.107Z,-1.92
2019-01-10T12:14:22.121Z,-2.02
2019-01-10T12:15:22.144Z,-1.96
2019-01-10T12:16:28.442Z,-1.93
2019-01-10T12:17:22.191Z,-1.87
2019-01-10T12:18:22.219Z,-1.94
2019-01-10T12:19:22.238Z,-1.99
2019-01-10T12:20:22.264Z,-1.96
2019-01-10T12:21:22.285Z,-1.97
2019-01-10T12:22:22.308Z,-1.96
2019-01-10T12:23:22.334Z,-1.94
2019-01-10T12:24:22.354Z,-2.00
2019-01-10T12:25:22.379Z,-2.02
2019-01-10T12:26:22.400Z,-2.13
2019-01-10T12:27:22.424Z,-2.10
2019-01-10T12:28:22.451Z,-2.13
2019-01-10T12:29:22.473Z,-1.96
2019-01-10T12:30:22.496Z,-1.99
2019-01-10T12:31:22.521Z,-2.02
2019-01-10T12:32:22.541Z,-2.14
2019-01-10T12:33:22.572Z,-2.10
2019-01-10T12:34:22.589Z,-2.05
2019-01-10T12:35:22.614Z,-2.10
2019-01-10T12:36:22.634Z,-2.11
2019-01-10T12:37:22.658Z,-2.10
2019-01-10T12:38:22.679Z,-2.05
2019-01-10T12:39:22.706Z,-2.07
2019-01-10T12:40:22.727Z,-2.08
2019-01-10T12:41:22.750Z,-2.08
2019-01-10T12:42:22.780Z,-2.05
2019-01-10T12:43:22.799Z,-2.07
2019-01-10T12:44:22.821Z,-2.07
2019-01-10T12:45:22.850Z,-2.05
2019-01-10T12:46:22.865Z,-2.13
2019-01-10T12:47:22.894Z,-2.05
2019-01-10T12:48:22.913Z,-2.07
2019-01-10T12:49:22.936Z,-2.07
2019-01-10T12:50:22.963Z,-2.05
2019-01-10T12:51:22.981Z,-2.11
2019-01-10T12:52:23.011Z,-2.05